Kortrijk, Belgium
Current Conditions -  °F | °C
As of 6:00 AM on Saturday 25 Oct 2014 (Local Time) from LFQQ Reporting Station
Overcast Overcast  
Wind Chill: 12°   Ceiling: 700
Heat Index: 12°   Visibility: 4mi
Dew Point: 11°   Wind: 5mph
Humidity: 94%   Direction: 180°S
Pressure: 30.03"   Gusts: NA
Location:  50.83°N, 3.26°E
Report Text: LFQQ 250400Z 18004KT 7000 OVC007 12/11 Q1017 TEMPO 2000DZ OVC003
Loading
Personal Weather Stations






























Interactive Weather Map
Tropical Storm Tracking
New forecast layout! Learn more

10-Day Weather Forecast

Advertisements
Track Severe Weather on mobile